Time;durP1;ratioP1;P1;durP2;ratioP2;P2;SDS_P1;SDS_P2;PMS_P1;PMS_P2;Temp;Humidity;BMP_temperature;BMP_pressure;BME280_temperature;BME280_humidity;BME280_pressure;Samples;Min_cycle;Max_cycle;Signal;HPM_P1;HPM_P2
2023/05/05 00:00:22;;;;;;;18.50;10.50;;;;;;;8.60;65.47;100419.62;218000;1259;139343;-69
2023/05/05 00:05:49;;;;;;;17.00;8.90;;;;;;;8.49;65.62;100418.58;217793;1257;139565;-69
2023/05/05 00:10:53;;;;;;;21.00;9.00;;;;;;;8.30;65.84;100413.96;218534;1255;141452;-68
2023/05/05 00:15:56;;;;;;;14.60;9.30;;;;;;;8.13;66.29;100404.54;218170;1260;139012;-69
2023/05/05 00:21:00;;;;;;;19.00;11.70;;;;;;;7.99;66.83;100399.11;218951;1259;138951;-68
2023/05/05 00:26:03;;;;;;;26.40;11.80;;;;;;;7.93;66.95;100398.47;218223;1258;138850;-68
2023/05/05 00:31:06;;;;;;;20.20;11.50;;;;;;;7.95;67.03;100398.75;218886;1259;139638;-67
2023/05/05 00:36:10;;;;;;;21.40;10.30;;;;;;;7.93;67.18;100400.27;218340;1259;141355;-67
2023/05/05 00:41:12;;;;;;;14.30;11.00;;;;;;;7.87;66.98;100392.86;218116;1259;140097;-67
2023/05/05 00:46:26;;;;;;;16.00;9.80;;;;;;;7.75;67.17;100389.30;218637;1257;141097;-67
2023/05/05 00:51:30;;;;;;;14.90;7.70;;;;;;;7.72;67.29;100387.02;218135;1257;139455;-68
2023/05/05 00:56:33;;;;;;;13.30;7.90;;;;;;;7.62;67.60;100384.29;218040;1258;139368;-68
2023/05/05 01:01:36;;;;;;;13.90;8.90;;;;;;;7.47;68.05;100383.83;217837;1260;139743;-68
2023/05/05 01:07:21;;;;;;;15.90;9.00;;;;;;;7.35;68.13;100381.50;218098;1260;140016;-68
2023/05/05 01:12:49;;;;;;;12.80;8.50;;;;;;;7.31;68.34;100376.36;217707;1260;139068;-67
2023/05/05 01:18:10;;;;;;;14.50;10.20;;;;;;;7.33;68.57;100379.45;218473;1257;140155;-67
2023/05/05 01:23:36;;;;;;;13.10;8.80;;;;;;;7.33;68.66;100378.05;218182;1260;140096;-67
2023/05/05 01:29:16;;;;;;;17.90;9.00;;;;;;;7.29;68.56;100376.46;219681;1257;139701;-68
2023/05/05 01:34:44;;;;;;;11.90;9.00;;;;;;;7.24;68.51;100376.44;219883;1256;140884;-67
2023/05/05 01:39:53;;;;;;;11.30;7.70;;;;;;;7.24;68.65;100378.56;220654;1258;140381;-68
2023/05/05 01:44:57;;;;;;;14.60;8.20;;;;;;;7.18;68.37;100378.37;220741;1257;139790;-68
2023/05/05 01:50:02;;;;;;;12.80;8.20;;;;;;;7.14;68.41;100375.16;218079;1259;140054;-67
2023/05/05 01:55:08;;;;;;;13.90;8.30;;;;;;;7.02;68.34;100369.12;219359;1256;140629;-68
2023/05/05 02:00:15;;;;;;;13.40;9.40;;;;;;;6.93;68.88;100370.58;219187;1254;140096;-67
2023/05/05 02:05:21;;;;;;;10.10;7.10;;;;;;;6.91;68.95;100368.03;219944;1255;139945;-68
2023/05/05 02:10:25;;;;;;;14.00;10.20;;;;;;;6.81;69.31;100366.33;218120;1257;139967;-67
2023/05/05 02:15:29;;;;;;;11.50;7.50;;;;;;;6.74;69.48;100364.21;219265;1256;140218;-67
2023/05/05 02:20:32;;;;;;;12.80;8.00;;;;;;;6.75;69.91;100363.33;218334;1258;139434;-67
2023/05/05 02:25:42;;;;;;;11.10;7.00;;;;;;;6.67;69.74;100364.42;219234;1259;140338;-67
2023/05/05 02:30:53;;;;;;;12.60;7.80;;;;;;;6.58;69.69;100363.87;218382;1257;140939;-67
2023/05/05 02:35:58;;;;;;;7.80;6.20;;;;;;;6.49;70.16;100359.80;218180;1258;139885;-67
2023/05/05 02:41:03;;;;;;;11.30;7.30;;;;;;;6.41;70.45;100357.23;218196;1257;141162;-67
2023/05/05 02:46:08;;;;;;;17.20;11.30;;;;;;;6.29;70.46;100354.17;218493;1257;139338;-67
2023/05/05 02:51:11;;;;;;;11.30;7.80;;;;;;;6.23;71.07;100355.98;218538;1258;139820;-67
2023/05/05 02:56:42;;;;;;;14.00;7.60;;;;;;;6.27;71.23;100358.50;218629;1256;139440;-67
2023/05/05 03:01:58;;;;;;;13.30;8.50;;;;;;;6.28;71.38;100359.09;218344;1258;139430;-67
2023/05/05 03:07:10;;;;;;;9.40;6.40;;;;;;;6.30;71.58;100356.58;218426;1256;140755;-67
2023/05/05 03:12:21;;;;;;;12.00;7.80;;;;;;;6.29;71.39;100357.71;218607;1257;139476;-67
2023/05/05 03:17:26;;;;;;;12.20;6.80;;;;;;;6.27;71.87;100357.81;218085;1256;139576;-67
2023/05/05 03:22:29;;;;;;;16.40;9.00;;;;;;;6.24;72.00;100360.19;220386;1256;140861;-68
2023/05/05 03:27:32;;;;;;;12.50;8.50;;;;;;;6.26;72.41;100361.87;220692;1254;139269;-68
2023/05/05 03:32:36;;;;;;;11.20;9.00;;;;;;;6.34;72.94;100364.35;220809;1257;140950;-68
2023/05/05 03:37:39;;;;;;;11.10;8.30;;;;;;;6.47;72.98;100372.74;218169;1257;139670;-67
2023/05/05 03:42:43;;;;;;;17.70;11.30;;;;;;;6.63;73.10;100371.70;217952;1257;139452;-67
2023/05/05 03:47:46;;;;;;;16.30;10.90;;;;;;;6.71;73.28;100376.93;219812;1256;141449;-68
2023/05/05 03:52:50;;;;;;;18.40;11.40;;;;;;;6.73;72.95;100375.45;218483;1256;140735;-67
2023/05/05 03:57:54;;;;;;;19.20;9.00;;;;;;;6.81;73.22;100369.59;218141;1254;139595;-67
2023/05/05 04:02:56;;;;;;;31.90;10.80;;;;;;;6.87;72.95;100365.23;218947;1257;140049;-66
2023/05/05 04:08:00;;;;;;;18.50;12.40;;;;;;;6.95;73.54;100366.95;218160;1258;140471;-69
2023/05/05 04:13:03;;;;;;;24.40;15.60;;;;;;;7.12;73.41;100366.14;218626;1259;139714;-67
2023/05/05 04:18:06;;;;;;;19.80;10.60;;;;;;;7.30;73.81;100365.70;217939;1259;139802;-68
2023/05/05 04:23:09;;;;;;;14.30;9.30;;;;;;;7.43;73.90;100362.39;217892;1257;140434;-67
2023/05/05 04:28:11;;;;;;;11.20;8.00;;;;;;;7.52;73.41;100364.75;217824;1260;139804;-67
2023/05/05 04:33:13;;;;;;;20.70;9.50;;;;;;;7.63;73.60;100371.07;218116;1256;140307;-67
2023/05/05 04:38:18;;;;;;;12.90;8.90;;;;;;;7.81;73.56;100379.36;217689;1257;144846;-67
2023/05/05 04:43:21;;;;;;;17.70;9.20;;;;;;;8.08;73.41;100384.08;217865;1257;139625;-67
2023/05/05 04:48:23;;;;;;;12.00;6.80;;;;;;;8.43;73.69;100384.71;219335;1257;141205;-67
2023/05/05 04:53:26;;;;;;;11.60;8.10;;;;;;;8.81;73.56;100387.80;218834;1258;140780;-69
2023/05/05 04:58:29;;;;;;;14.00;9.50;;;;;;;9.17;72.73;100396.71;219038;1256;139928;-69
2023/05/05 05:03:33;;;;;;;11.90;8.00;;;;;;;9.53;72.27;100394.48;218261;1256;140275;-70
2023/05/05 05:08:36;;;;;;;8.80;7.50;;;;;;;9.93;71.72;100400.94;217935;1257;139643;-70
2023/05/05 05:13:39;;;;;;;14.20;7.80;;;;;;;10.40;70.90;100399.06;218463;1256;140083;-69
2023/05/05 05:18:42;;;;;;;12.20;6.80;;;;;;;10.77;69.95;100402.09;218017;1257;140270;-68
2023/05/05 05:23:45;;;;;;;11.00;7.00;;;;;;;10.88;69.44;100403.68;220469;1255;140476;-70
2023/05/05 05:28:48;;;;;;;11.60;7.60;;;;;;;10.92;68.80;100406.20;220876;1256;140129;-72
2023/05/05 05:33:51;;;;;;;10.90;8.50;;;;;;;10.99;68.39;100408.86;218723;1256;140115;-68
2023/05/05 05:38:55;;;;;;;7.30;6.50;;;;;;;11.09;68.13;100412.19;220354;1257;141287;-69
2023/05/05 05:43:59;;;;;;;12.10;7.10;;;;;;;11.24;67.90;100417.55;220397;1255;140503;-70
2023/05/05 05:49:02;;;;;;;7.90;6.30;;;;;;;11.46;67.68;100411.73;219944;1256;140188;-68
2023/05/05 05:54:06;;;;;;;9.20;6.80;;;;;;;11.73;66.92;100419.23;218146;1257;140139;-66
2023/05/05 05:59:09;;;;;;;9.50;6.20;;;;;;;12.04;66.71;100420.23;218678;1256;140074;-67
2023/05/05 06:04:12;;;;;;;8.60;7.00;;;;;;;12.31;65.93;100418.52;218668;1257;139897;-68
2023/05/05 06:09:14;;;;;;;10.40;7.00;;;;;;;12.57;65.17;100420.55;217844;1257;139612;-72
2023/05/05 06:14:17;;;;;;;6.40;5.40;;;;;;;12.89;64.72;100420.06;218026;1256;139979;-75
2023/05/05 06:19:22;;;;;;;7.70;6.30;;;;;;;13.30;63.97;100428.64;218007;1257;138663;-68
2023/05/05 06:24:25;;;;;;;8.20;5.50;;;;;;;13.79;63.11;100424.06;218342;1256;139613;-68
2023/05/05 06:29:29;;;;;;;6.40;5.50;;;;;;;14.29;62.22;100432.71;218112;1256;140432;-71
2023/05/05 06:34:31;;;;;;;8.10;5.60;;;;;;;14.82;61.71;100436.91;217924;1256;140338;-69
2023/05/05 06:39:35;;;;;;;5.70;4.60;;;;;;;15.34;60.89;100442.02;218843;1256;140592;-67
2023/05/05 06:44:38;;;;;;;10.90;5.40;;;;;;;15.72;59.37;100446.23;218429;1256;139102;-69
2023/05/05 06:49:42;;;;;;;6.40;5.30;;;;;;;16.14;59.04;100447.27;218356;1256;141329;-69
2023/05/05 06:54:45;;;;;;;9.20;7.00;;;;;;;16.55;58.30;100445.77;218089;1256;140601;-68
2023/05/05 06:59:48;;;;;;;7.70;5.50;;;;;;;17.16;57.47;100451.86;219459;1255;139825;-70
2023/05/05 07:04:51;;;;;;;8.70;7.20;;;;;;;18.01;56.45;100448.04;218184;1258;139286;-68
2023/05/05 07:09:54;;;;;;;7.00;5.70;;;;;;;18.66;55.17;100451.09;217637;1258;139947;-68
2023/05/05 07:14:57;;;;;;;15.20;5.40;;;;;;;19.03;54.17;100448.96;219330;1256;140865;-68
2023/05/05 07:19:59;;;;;;;6.50;5.90;;;;;;;19.40;53.07;100448.11;218806;1256;139302;-67
2023/05/05 07:25:03;;;;;;;9.30;5.30;;;;;;;19.59;52.01;100445.25;220359;1257;140271;-67
2023/05/05 07:30:07;;;;;;;8.50;5.90;;;;;;;19.79;51.39;100441.76;219123;1256;139387;-68
2023/05/05 07:35:16;;;;;;;8.10;5.40;;;;;;;19.72;50.24;100440.33;220042;1257;139073;-68
2023/05/05 07:40:19;;;;;;;6.90;5.30;;;;;;;19.39;49.08;100443.69;219963;1256;139265;-68
2023/05/05 07:45:21;;;;;;;9.00;6.30;;;;;;;18.99;48.37;100437.84;218555;1256;140977;-69
2023/05/05 07:50:25;;;;;;;7.40;5.30;;;;;;;18.99;48.82;100440.38;217676;1257;139466;-69
2023/05/05 07:55:29;;;;;;;4.80;4.30;;;;;;;19.11;48.78;100438.84;218854;1257;139970;-68
2023/05/05 08:00:35;;;;;;;5.90;3.80;;;;;;;19.22;48.28;100440.98;218316;1256;139163;-70
2023/05/05 08:05:39;;;;;;;4.80;3.70;;;;;;;19.22;46.86;100441.53;219297;1255;139611;-70
2023/05/05 08:10:44;;;;;;;10.30;4.30;;;;;;;19.26;46.37;100441.73;219209;1256;138915;-71
2023/05/05 08:15:46;;;;;;;5.60;4.50;;;;;;;19.50;46.36;100442.95;218009;1256;139245;-71
2023/05/05 08:20:49;;;;;;;6.60;5.10;;;;;;;19.70;46.32;100442.45;218481;1257;140121;-71
2023/05/05 08:25:53;;;;;;;8.90;5.10;;;;;;;20.04;46.11;100437.02;218262;1256;139727;-72
2023/05/05 08:30:57;;;;;;;9.90;4.10;;;;;;;20.17;45.39;100437.73;217986;1256;139085;-73
2023/05/05 08:36:01;;;;;;;7.50;5.30;;;;;;;20.29;45.29;100436.02;218259;1256;138951;-72
2023/05/05 08:41:08;;;;;;;6.00;4.50;;;;;;;20.12;44.14;100439.61;217869;1257;139661;-67
2023/05/05 08:46:12;;;;;;;6.70;4.20;;;;;;;20.11;43.74;100444.07;218924;1259;139614;-68
2023/05/05 08:51:19;;;;;;;6.40;4.50;;;;;;;20.28;43.68;100436.73;218028;1256;139991;-67
2023/05/05 08:56:26;;;;;;;7.30;5.50;;;;;;;20.18;43.28;100438.48;218957;1256;139853;-67
2023/05/05 09:01:32;;;;;;;6.40;4.60;;;;;;;19.90;42.83;100436.34;218141;1259;139706;-67
2023/05/05 09:06:36;;;;;;;6.80;4.40;;;;;;;19.78;42.35;100434.08;218035;1256;138774;-67
2023/05/05 09:11:40;;;;;;;5.80;3.90;;;;;;;19.79;42.66;100439.81;220778;1256;139179;-68
2023/05/05 09:16:43;;;;;;;5.80;4.60;;;;;;;19.83;42.40;100438.12;220225;1256;138851;-67
2023/05/05 09:21:50;;;;;;;7.00;3.80;;;;;;;20.02;42.15;100437.30;219441;1256;162197;-66
2023/05/05 09:26:55;;;;;;;5.20;4.60;;;;;;;20.38;42.42;100435.88;218450;1256;139308;-68
2023/05/05 09:32:07;;;;;;;5.20;4.60;;;;;;;20.63;41.81;100434.00;219237;1258;139279;-68
2023/05/05 09:37:25;;;;;;;5.10;3.30;;;;;;;20.80;41.69;100439.80;219196;1257;139569;-66
2023/05/05 09:42:28;;;;;;;9.40;5.30;;;;;;;20.45;40.36;100434.73;217749;1259;138912;-65
2023/05/05 09:47:36;;;;;;;5.10;3.90;;;;;;;20.34;41.83;100433.57;218093;1257;139199;-72
2023/05/05 09:52:40;;;;;;;5.60;4.10;;;;;;;20.66;42.58;100430.72;218119;1256;139928;-71
2023/05/05 09:57:43;;;;;;;5.00;4.40;;;;;;;21.02;42.01;100435.53;218608;1256;140100;-70
2023/05/05 10:02:46;;;;;;;4.50;4.10;;;;;;;21.29;40.78;100435.59;218245;1256;139785;-71
2023/05/05 10:07:49;;;;;;;5.40;4.60;;;;;;;21.54;40.74;100432.15;218541;1255;138955;-73
2023/05/05 10:12:53;;;;;;;4.40;3.80;;;;;;;21.66;39.70;100423.95;218619;1256;138884;-73
2023/05/05 10:18:00;;;;;;;4.60;4.00;;;;;;;21.58;39.96;100419.83;218388;1256;139056;-72
2023/05/05 10:23:14;;;;;;;4.90;4.20;;;;;;;21.98;39.87;100420.06;218275;1259;139993;-72
2023/05/05 10:28:27;;;;;;;6.30;3.80;;;;;;;22.12;38.89;100416.98;218566;1257;140195;-72
2023/05/05 10:33:38;;;;;;;7.10;5.50;;;;;;;22.16;37.84;100414.11;218546;1253;139656;-70
2023/05/05 10:38:42;;;;;;;18.00;5.90;;;;;;;22.38;38.10;100404.09;218822;1257;139444;-72
2023/05/05 10:43:46;;;;;;;7.20;5.80;;;;;;;22.77;37.73;100401.48;217614;1255;588613;-70
2023/05/05 10:49:02;;;;;;;8.10;7.30;;;;;;;22.90;37.47;100395.92;218801;1256;139241;-70
2023/05/05 10:54:37;;;;;;;11.50;7.60;;;;;;;22.98;37.59;100392.83;217921;1256;138996;-70
2023/05/05 10:59:42;;;;;;;10.10;7.80;;;;;;;22.87;38.18;100394.61;218503;1255;139186;-69
2023/05/05 11:05:02;;;;;;;12.20;8.40;;;;;;;22.38;38.48;100389.30;219370;1256;140465;-72
2023/05/05 11:10:13;;;;;;;8.60;7.60;;;;;;;21.68;38.28;100393.48;219011;1256;142191;-70
2023/05/05 11:15:28;;;;;;;9.50;7.50;;;;;;;21.26;38.47;100394.77;218173;1258;139507;-70
2023/05/05 11:20:38;;;;;;;9.60;7.50;;;;;;;21.06;38.75;100394.45;219708;1256;139402;-75
2023/05/05 11:25:43;;;;;;;7.90;7.10;;;;;;;20.95;38.49;100387.90;219596;1256;138889;-75
2023/05/05 11:30:57;;;;;;;11.50;7.80;;;;;;;21.11;39.61;100391.04;218545;1257;138739;-68
2023/05/05 11:36:02;;;;;;;8.80;6.80;;;;;;;21.28;39.02;100384.95;219317;1253;139034;-71
2023/05/05 11:41:32;;;;;;;9.20;6.80;;;;;;;20.99;38.33;100388.11;217996;1258;139697;-75
2023/05/05 11:46:38;;;;;;;10.80;8.20;;;;;;;20.62;38.50;100390.02;218520;1257;138819;-68
2023/05/05 11:51:43;;;;;;;9.30;7.60;;;;;;;20.49;38.76;100390.52;217809;1256;139955;-68
2023/05/05 11:56:49;;;;;;;7.10;6.60;;;;;;;20.45;38.95;100389.47;218564;1256;138997;-68
2023/05/05 12:01:53;;;;;;;7.30;6.60;;;;;;;20.40;38.64;100387.18;218314;1256;139239;-67
2023/05/05 12:06:58;;;;;;;7.30;6.60;;;;;;;20.32;38.79;100380.67;217799;1255;139537;-69
2023/05/05 12:12:02;;;;;;;8.50;6.40;;;;;;;20.28;39.17;100379.23;218308;1257;140224;-70
2023/05/05 12:17:08;;;;;;;8.70;5.90;;;;;;;20.61;39.40;100382.39;217818;1257;139437;-69
2023/05/05 12:22:18;;;;;;;8.10;7.40;;;;;;;20.99;38.88;100380.16;219554;1257;139510;-67
2023/05/05 12:27:22;;;;;;;6.70;5.70;;;;;;;21.16;38.79;100376.86;218410;1257;139408;-68
2023/05/05 12:32:27;;;;;;;8.20;6.60;;;;;;;20.92;38.02;100375.35;218703;1258;140472;-67
2023/05/05 12:37:31;;;;;;;14.00;7.50;;;;;;;20.46;38.14;100376.62;217934;1257;139270;-72
2023/05/05 12:42:38;;;;;;;8.20;5.80;;;;;;;20.47;39.04;100372.00;218439;1255;140246;-73
2023/05/05 12:47:43;;;;;;;10.20;7.10;;;;;;;20.83;38.72;100367.48;219171;1256;139648;-70
2023/05/05 12:52:47;;;;;;;7.50;5.90;;;;;;;20.68;38.10;100371.17;217926;1259;140030;-70
2023/05/05 12:58:03;;;;;;;22.80;8.10;;;;;;;20.37;38.20;100369.38;218979;1256;139377;-71
2023/05/05 13:03:17;;;;;;;;;;;;;;;20.20;38.23;100366.63;219919;1256;140024;-71
2023/05/05 13:08:21;;;;;;;7.50;5.40;;;;;;;20.00;38.41;100361.36;220613;1257;126119;-70
2023/05/05 13:13:24;;;;;;;5.90;5.20;;;;;;;19.90;38.62;100362.80;220795;1257;139468;-71
2023/05/05 13:18:29;;;;;;;7.70;5.60;;;;;;;19.58;38.45;100361.64;218807;1257;140363;-70
2023/05/05 13:23:32;;;;;;;9.80;6.00;;;;;;;19.43;38.99;100356.23;218908;1257;140110;-70
2023/05/05 13:28:35;;;;;;;9.70;4.40;;;;;;;19.41;39.15;100357.32;219173;1253;138957;-71
2023/05/05 13:33:38;;;;;;;5.80;4.10;;;;;;;19.35;39.29;100366.37;218083;1257;141126;-70
2023/05/05 13:38:42;;;;;;;5.00;4.50;;;;;;;19.06;39.15;100366.80;217907;1257;139120;-69
2023/05/05 13:43:46;;;;;;;8.50;5.40;;;;;;;18.86;39.62;100364.98;218566;1257;140081;-70
2023/05/05 13:48:50;;;;;;;5.60;3.70;;;;;;;18.85;40.09;100360.17;218100;1258;138977;-70
2023/05/05 13:53:59;;;;;;;4.70;4.00;;;;;;;18.85;40.35;100358.07;218382;1257;140573;-69
2023/05/05 13:59:02;;;;;;;4.80;3.20;;;;;;;18.54;40.08;100353.08;217841;1257;139606;-67
2023/05/05 14:04:07;;;;;;;6.80;4.10;;;;;;;18.24;40.69;100356.45;217885;1257;139740;-75
2023/05/05 14:09:10;;;;;;;5.90;3.80;;;;;;;18.04;40.82;100354.92;217828;1259;139131;-73
2023/05/05 14:14:15;;;;;;;4.70;2.60;;;;;;;17.94;41.13;100355.25;217755;1259;139259;-73
2023/05/05 14:19:22;;;;;;;3.60;3.10;;;;;;;17.84;41.40;100355.33;217660;1257;140115;-71
2023/05/05 14:24:25;;;;;;;4.30;3.90;;;;;;;17.68;41.38;100358.52;218191;1259;139049;-71
2023/05/05 14:29:28;;;;;;;6.90;4.60;;;;;;;17.62;41.76;100365.45;217909;1257;139167;-69
2023/05/05 14:34:30;;;;;;;3.60;3.30;;;;;;;17.66;41.82;100360.80;218175;1255;138893;-69
2023/05/05 14:39:34;;;;;;;11.20;4.10;;;;;;;17.72;42.04;100354.94;217949;1257;139222;-69
2023/05/05 14:44:37;;;;;;;5.30;3.40;;;;;;;17.77;42.23;100348.46;218320;1257;138924;-68
2023/05/05 14:49:40;;;;;;;4.90;2.80;;;;;;;17.86;42.31;100354.14;219176;1256;140191;-69
2023/05/05 14:54:44;;;;;;;34.20;6.50;;;;;;;17.87;42.19;100356.89;218932;1257;140228;-68
2023/05/05 14:59:50;;;;;;;4.00;3.60;;;;;;;17.83;42.22;100352.52;219200;1257;139349;-69
2023/05/05 15:04:54;;;;;;;7.00;3.30;;;;;;;17.65;42.20;100356.63;220074;1256;139899;-70
2023/05/05 15:09:56;;;;;;;6.70;3.50;;;;;;;17.56;42.45;100360.09;220313;1257;139407;-74
2023/05/05 15:14:59;;;;;;;4.30;3.60;;;;;;;17.61;42.76;100357.69;218303;1257;139102;-74
2023/05/05 15:20:03;;;;;;;8.20;4.40;;;;;;;17.60;42.72;100354.52;218799;1257;139471;-73
2023/05/05 15:25:11;;;;;;;13.00;4.40;;;;;;;17.52;43.08;100359.15;218927;1257;138950;-72
2023/05/05 15:30:14;;;;;;;5.10;3.50;;;;;;;17.40;42.98;100361.77;217896;1256;139358;-74
2023/05/05 15:35:24;;;;;;;6.80;3.80;;;;;;;17.19;43.22;100364.80;218831;1257;143263;-71
2023/05/05 15:40:27;;;;;;;11.00;3.90;;;;;;;16.90;43.32;100368.65;218730;1257;140221;-72
2023/05/05 15:45:30;;;;;;;7.90;3.30;;;;;;;16.68;43.78;100364.53;217948;1256;139211;-72
2023/05/05 15:50:34;;;;;;;4.80;3.50;;;;;;;16.50;44.14;100361.64;218120;1257;139457;-71
2023/05/05 15:55:39;;;;;;;6.60;2.90;;;;;;;16.30;44.39;100356.64;217999;1257;139092;-70
2023/05/05 16:00:45;;;;;;;5.60;3.30;;;;;;;16.09;44.78;100355.08;218405;1259;139720;-71
2023/05/05 16:05:51;;;;;;;4.60;3.40;;;;;;;16.00;45.18;100357.56;217790;1257;139193;-69
2023/05/05 16:10:56;;;;;;;4.60;3.00;;;;;;;15.95;45.48;100353.70;218172;1257;139932;-74
2023/05/05 16:16:00;;;;;;;7.20;3.00;;;;;;;15.79;45.48;100350.88;218435;1256;139418;-68
2023/05/05 16:21:04;;;;;;;5.50;3.50;;;;;;;15.63;45.71;100354.84;218426;1259;139391;-69
2023/05/05 16:26:14;;;;;;;4.40;4.00;;;;;;;15.43;45.74;100354.33;218724;1258;139127;-68
2023/05/05 16:31:17;;;;;;;8.10;4.40;;;;;;;15.26;46.25;100356.23;217938;1257;140454;-67
2023/05/05 16:36:21;;;;;;;8.20;3.60;;;;;;;15.17;46.40;100355.35;218957;1258;139574;-70
2023/05/05 16:41:25;;;;;;;8.80;4.40;;;;;;;15.09;46.61;100354.29;217743;1259;221539;-71
2023/05/05 16:46:28;;;;;;;3.20;2.70;;;;;;;15.01;46.70;100351.88;219435;1256;140000;-71
2023/05/05 16:51:33;;;;;;;3.90;3.60;;;;;;;14.88;46.84;100355.84;217763;1259;141201;-73
2023/05/05 16:56:36;;;;;;;7.60;3.50;;;;;;;14.78;47.31;100358.05;220683;1257;139851;-69
2023/05/05 17:01:39;;;;;;;4.30;3.90;;;;;;;14.71;47.47;100352.33;219082;1256;139803;-68
2023/05/05 17:06:43;;;;;;;4.80;2.40;;;;;;;14.64;47.39;100355.59;220727;1254;139163;-69
2023/05/05 17:11:50;;;;;;;3.60;3.20;;;;;;;14.52;47.58;100353.81;220182;1257;139942;-69
2023/05/05 17:16:54;;;;;;;3.20;2.90;;;;;;;14.40;48.09;100363.64;217872;1257;139279;-70
2023/05/05 17:21:59;;;;;;;9.00;4.20;;;;;;;14.28;48.40;100365.22;218729;1259;140233;-70
2023/05/05 17:27:04;;;;;;;7.00;3.90;;;;;;;14.13;48.59;100363.95;217717;1259;139121;-71
2023/05/05 17:32:08;;;;;;;19.70;3.40;;;;;;;13.98;48.83;100372.70;219570;1257;139381;-70
2023/05/05 17:37:11;;;;;;;12.30;4.00;;;;;;;13.84;48.97;100378.82;218708;1258;140751;-69
2023/05/05 17:42:17;;;;;;;12.50;3.60;;;;;;;13.70;49.17;100375.91;218604;1256;140233;-71
2023/05/05 17:47:22;;;;;;;6.80;3.00;;;;;;;13.57;49.60;100378.63;218313;1257;140045;-72
2023/05/05 17:52:26;;;;;;;11.90;3.70;;;;;;;13.43;49.72;100382.75;218128;1258;139327;-71
2023/05/05 17:57:32;;;;;;;5.10;3.50;;;;;;;13.29;50.03;100385.37;218655;1257;139932;-71
2023/05/05 18:02:38;;;;;;;6.50;3.80;;;;;;;13.15;50.11;100382.63;218280;1256;140356;-71
2023/05/05 18:07:42;;;;;;;10.40;6.00;;;;;;;13.01;50.14;100388.06;218499;1257;139621;-71
2023/05/05 18:12:47;;;;;;;14.70;8.50;;;;;;;12.88;50.57;100388.14;218232;1258;139551;-70
2023/05/05 18:17:57;;;;;;;4.60;3.90;;;;;;;12.75;50.64;100395.09;219083;1256;139961;-70
2023/05/05 18:23:00;;;;;;;5.40;4.20;;;;;;;12.66;50.83;100398.58;217877;1259;139251;-70
2023/05/05 18:28:04;;;;;;;33.60;25.50;;;;;;;12.59;50.99;100404.00;218403;1256;139539;-71
2023/05/05 18:33:07;;;;;;;10.50;8.70;;;;;;;12.52;50.89;100405.61;218090;1259;140156;-70
2023/05/05 18:38:11;;;;;;;21.40;6.80;;;;;;;12.44;51.41;100412.12;218056;1260;140028;-71
2023/05/05 18:43:15;;;;;;;8.00;4.50;;;;;;;12.38;51.34;100419.16;218953;1257;140479;-71
2023/05/05 18:48:18;;;;;;;8.30;4.30;;;;;;;12.32;51.44;100418.96;218194;1259;139470;-70
2023/05/05 18:53:21;;;;;;;25.10;15.90;;;;;;;12.24;51.22;100416.54;218247;1257;139136;-69
2023/05/05 18:58:26;;;;;;;4.30;3.70;;;;;;;12.16;51.37;100419.27;220383;1259;140937;-70
2023/05/05 19:03:29;;;;;;;7.20;3.70;;;;;;;12.10;51.72;100419.59;220533;1259;139983;-71
2023/05/05 19:08:33;;;;;;;9.40;5.00;;;;;;;12.05;51.76;100418.71;219740;1256;139911;-71
2023/05/05 19:13:35;;;;;;;8.90;4.20;;;;;;;12.01;51.58;100424.27;218439;1260;140060;-69
2023/05/05 19:18:40;;;;;;;8.60;4.70;;;;;;;11.94;51.62;100420.36;217740;1260;139305;-70
2023/05/05 19:23:44;;;;;;;4.80;3.90;;;;;;;11.85;51.67;100421.76;219038;1257;139452;-70
2023/05/05 19:28:47;;;;;;;20.30;6.40;;;;;;;11.76;51.69;100417.17;218353;1257;141620;-70
2023/05/05 19:33:49;;;;;;;7.80;4.30;;;;;;;11.65;51.72;100418.73;218001;1258;139457;-70
2023/05/05 19:38:54;;;;;;;20.90;9.10;;;;;;;11.54;51.76;100426.19;218183;1259;139083;-70
2023/05/05 19:43:57;;;;;;;7.50;4.40;;;;;;;11.44;51.86;100425.52;218132;1260;139321;-71
2023/05/05 19:49:00;;;;;;;9.40;4.50;;;;;;;11.34;52.02;100428.14;218251;1258;139065;-70
2023/05/05 19:54:03;;;;;;;7.20;4.70;;;;;;;11.25;52.19;100429.16;218090;1257;139430;-69
2023/05/05 19:59:06;;;;;;;24.60;12.10;;;;;;;11.16;52.31;100427.77;218025;1259;139835;-70
2023/05/05 20:04:08;;;;;;;10.10;4.70;;;;;;;11.07;52.33;100429.16;218290;1257;140105;-69
2023/05/05 20:09:10;;;;;;;10.40;6.00;;;;;;;10.97;52.58;100427.71;218081;1260;139783;-70
2023/05/05 20:14:13;;;;;;;10.00;4.80;;;;;;;10.89;52.72;100429.15;218146;1257;139545;-69
2023/05/05 20:19:15;;;;;;;6.70;5.30;;;;;;;10.81;52.75;100423.77;218058;1257;139956;-70
2023/05/05 20:24:18;;;;;;;8.90;5.20;;;;;;;10.70;52.90;100422.02;218333;1258;140781;-69
2023/05/05 20:29:24;;;;;;;12.00;6.10;;;;;;;10.62;52.95;100414.14;217943;1258;139154;-70
2023/05/05 20:34:28;;;;;;;12.40;7.20;;;;;;;10.55;53.24;100410.95;218557;1257;140912;-69
2023/05/05 20:39:37;;;;;;;8.80;5.30;;;;;;;10.47;53.31;100407.85;219606;1257;140506;-69
2023/05/05 20:44:40;;;;;;;10.30;5.20;;;;;;;10.41;53.63;100415.48;219436;1257;140457;-69
2023/05/05 20:49:43;;;;;;;10.60;4.80;;;;;;;10.36;53.66;100411.36;220593;1257;140738;-70
2023/05/05 20:54:46;;;;;;;10.00;5.40;;;;;;;10.31;53.86;100411.63;220156;1257;139297;-69
2023/05/05 20:59:49;;;;;;;6.90;5.30;;;;;;;10.28;53.93;100414.61;220379;1256;139643;-70
2023/05/05 21:04:52;;;;;;;6.40;5.70;;;;;;;10.24;54.12;100412.71;218214;1257;139308;-70
2023/05/05 21:09:54;;;;;;;11.20;6.20;;;;;;;10.18;54.24;100411.86;218047;1260;139117;-69
2023/05/05 21:14:58;;;;;;;7.10;6.00;;;;;;;10.10;54.32;100406.62;218017;1257;139213;-69
2023/05/05 21:20:01;;;;;;;5.30;4.80;;;;;;;10.02;54.57;100401.48;218706;1257;138706;-70
2023/05/05 21:25:14;;;;;;;5.50;4.00;;;;;;;9.96;54.85;100399.50;217827;1260;140341;-68
2023/05/05 21:30:17;;;;;;;7.10;4.30;;;;;;;9.89;54.93;100400.36;218912;1258;140863;-71
2023/05/05 21:35:20;;;;;;;7.70;6.50;;;;;;;9.80;55.06;100398.23;218267;1259;139609;-70
2023/05/05 21:40:23;;;;;;;9.50;8.50;;;;;;;9.73;55.22;100397.55;218730;1257;138934;-70
2023/05/05 21:45:27;;;;;;;6.90;5.60;;;;;;;9.67;55.35;100397.20;218336;1259;139168;-70
2023/05/05 21:50:29;;;;;;;10.70;7.20;;;;;;;9.58;55.69;100387.91;218268;1257;140197;-69
2023/05/05 21:55:30;;;;;;;9.30;5.70;;;;;;;9.52;55.79;100381.34;218034;1257;140110;-69
2023/05/05 22:00:34;;;;;;;6.30;4.00;;;;;;;9.46;56.07;100383.84;218185;1257;140231;-70
2023/05/05 22:05:38;;;;;;;7.30;5.40;;;;;;;9.40;56.23;100386.77;217950;1257;139313;-68
2023/05/05 22:10:43;;;;;;;5.10;4.60;;;;;;;9.35;56.25;100384.86;218501;1257;139150;-69
2023/05/05 22:15:48;;;;;;;8.70;4.80;;;;;;;9.29;56.59;100384.76;219509;1255;140933;-68
2023/05/05 22:20:53;;;;;;;6.30;4.10;;;;;;;9.26;56.64;100386.45;218011;1257;139083;-69
2023/05/05 22:25:57;;;;;;;5.10;4.60;;;;;;;9.22;56.92;100379.54;218409;1258;140799;-69
2023/05/05 22:31:01;;;;;;;6.50;4.60;;;;;;;9.17;57.12;100379.15;218813;1256;139006;-69
2023/05/05 22:36:07;;;;;;;5.80;4.00;;;;;;;9.13;57.26;100379.14;218082;1257;140016;-69
2023/05/05 22:41:12;;;;;;;13.00;5.20;;;;;;;9.08;57.17;100382.09;219007;1257;139028;-69
2023/05/05 22:46:15;;;;;;;5.10;3.90;;;;;;;9.04;57.43;100381.20;219948;1256;1283128;-70
2023/05/05 22:51:20;;;;;;;5.50;4.00;;;;;;;9.01;57.57;100376.67;220760;1255;142524;-70
2023/05/05 22:56:24;;;;;;;4.30;3.70;;;;;;;8.99;57.69;100377.36;218921;1256;139781;-69
2023/05/05 23:01:29;;;;;;;6.60;4.10;;;;;;;8.95;57.82;100377.33;219066;1257;139079;-69
2023/05/05 23:06:33;;;;;;;8.40;5.00;;;;;;;8.91;58.23;100372.50;218329;1260;138910;-68